sensor_id;sensor_type;location;lat;lon;timestamp;pressure;altitude;pressure_sealevel;temperature;humidity
4586;BME280;2305;50.118;8.952;2023-02-14T00:01:54;102595.03;;;2.89;100.00
4586;BME280;2305;50.118;8.952;2023-02-14T00:04:22;102608.03;;;2.89;100.00
4586;BME280;2305;50.118;8.952;2023-02-14T00:06:52;102602.78;;;2.92;100.00
4586;BME280;2305;50.118;8.952;2023-02-14T00:09:20;102603.66;;;2.93;100.00
4586;BME280;2305;50.118;8.952;2023-02-14T00:11:51;102608.88;;;2.91;100.00
4586;BME280;2305;50.118;8.952;2023-02-14T00:14:19;102604.56;;;2.90;100.00
4586;BME280;2305;50.118;8.952;2023-02-14T00:17:05;102594.13;;;2.90;100.00
4586;BME280;2305;50.118;8.952;2023-02-14T00:19:33;102599.38;;;2.87;100.00
4586;BME280;2305;50.118;8.952;2023-02-14T00:22:05;102590.66;;;2.90;100.00
4586;BME280;2305;50.118;8.952;2023-02-14T00:24:34;102590.81;;;2.81;100.00
4586;BME280;2305;50.118;8.952;2023-02-14T00:27:02;102594.22;;;2.84;100.00
4586;BME280;2305;50.118;8.952;2023-02-14T00:29:31;102594.22;;;2.86;100.00
4586;BME280;2305;50.118;8.952;2023-02-14T00:32:00;102599.38;;;2.89;100.00
4586;BME280;2305;50.118;8.952;2023-02-14T00:34:29;102594.16;;;2.89;100.00
4586;BME280;2305;50.118;8.952;2023-02-14T00:36:59;102595.19;;;2.77;100.00
4586;BME280;2305;50.118;8.952;2023-02-14T00:39:28;102594.44;;;2.68;100.00
4586;BME280;2305;50.118;8.952;2023-02-14T00:41:56;102587.59;;;2.59;100.00
4586;BME280;2305;50.118;8.952;2023-02-14T00:44:24;102584.22;;;2.56;100.00
4586;BME280;2305;50.118;8.952;2023-02-14T00:47:11;102585.94;;;2.54;100.00
4586;BME280;2305;50.118;8.952;2023-02-14T00:49:40;102585.09;;;2.53;100.00
4586;BME280;2305;50.118;8.952;2023-02-14T00:52:26;102587.72;;;2.50;100.00
4586;BME280;2305;50.118;8.952;2023-02-14T00:54:58;102586.91;;;2.48;100.00
4586;BME280;2305;50.118;8.952;2023-02-14T00:57:26;102588.63;;;2.49;100.00
4586;BME280;2305;50.118;8.952;2023-02-14T00:59:56;102585.19;;;2.47;100.00
4586;BME280;2305;50.118;8.952;2023-02-14T01:02:24;102586.03;;;2.48;100.00
4586;BME280;2305;50.118;8.952;2023-02-14T01:04:54;102588.63;;;2.48;100.00
4586;BME280;2305;50.118;8.952;2023-02-14T01:07:25;102593.81;;;2.49;100.00
4586;BME280;2305;50.118;8.952;2023-02-14T01:09:53;102607.78;;;2.41;100.00
4586;BME280;2305;50.118;8.952;2023-02-14T01:12:22;102607.84;;;2.38;100.00
4586;BME280;2305;50.118;8.952;2023-02-14T01:14:50;102608.72;;;2.34;100.00
4586;BME280;2305;50.118;8.952;2023-02-14T01:17:18;102606.13;;;2.35;100.00
4586;BME280;2305;50.118;8.952;2023-02-14T01:19:46;102601.81;;;2.33;100.00
4586;BME280;2305;50.118;8.952;2023-02-14T01:22:17;102605.28;;;2.33;100.00
4586;BME280;2305;50.118;8.952;2023-02-14T01:24:45;102601.81;;;2.33;100.00
4586;BME280;2305;50.118;8.952;2023-02-14T01:27:14;102595.78;;;2.32;100.00
4586;BME280;2305;50.118;8.952;2023-02-14T01:29:43;102594.97;;;2.26;100.00
4586;BME280;2305;50.118;8.952;2023-02-14T01:32:11;102591.53;;;2.24;100.00
4586;BME280;2305;50.118;8.952;2023-02-14T01:34:39;102591.56;;;2.21;100.00
4586;BME280;2305;50.118;8.952;2023-02-14T01:37:08;102591.47;;;2.27;100.00
4586;BME280;2305;50.118;8.952;2023-02-14T01:39:36;102592.38;;;2.26;100.00
4586;BME280;2305;50.118;8.952;2023-02-14T01:42:08;102587.19;;;2.24;100.00
4586;BME280;2305;50.118;8.952;2023-02-14T01:44:58;102588.09;;;2.22;100.00
4586;BME280;2305;50.118;8.952;2023-02-14T01:47:28;102584.69;;;2.15;100.00
4586;BME280;2305;50.118;8.952;2023-02-14T01:50:07;102572.56;;;2.14;100.00
4586;BME280;2305;50.118;8.952;2023-02-14T01:52:40;102576.88;;;2.15;100.00
4586;BME280;2305;50.118;8.952;2023-02-14T01:55:13;102582.97;;;2.13;100.00
4586;BME280;2305;50.118;8.952;2023-02-14T01:57:45;102582.13;;;2.12;100.00
4586;BME280;2305;50.118;8.952;2023-02-14T02:03:05;102581.38;;;2.03;100.00
4586;BME280;2305;50.118;8.952;2023-02-14T02:05:37;102597.00;;;1.97;100.00
4586;BME280;2305;50.118;8.952;2023-02-14T02:08:07;102586.63;;;1.95;100.00
4586;BME280;2305;50.118;8.952;2023-02-14T02:10:35;102584.91;;;1.96;100.00
4586;BME280;2305;50.118;8.952;2023-02-14T02:13:06;102583.34;;;1.81;100.00
4586;BME280;2305;50.118;8.952;2023-02-14T02:15:41;102580.69;;;1.84;100.00
4586;BME280;2305;50.118;8.952;2023-02-14T02:18:19;102579.81;;;1.85;100.00
4586;BME280;2305;50.118;8.952;2023-02-14T02:24:21;102579.81;;;1.84;100.00
4586;BME280;2305;50.118;8.952;2023-02-14T02:27:06;102580.69;;;1.86;100.00
4586;BME280;2305;50.118;8.952;2023-02-14T02:30:17;102576.38;;;1.85;100.00
4586;BME280;2305;50.118;8.952;2023-02-14T02:36:28;102572.06;;;1.82;100.00
4586;BME280;2305;50.118;8.952;2023-02-14T02:39:11;102582.44;;;1.82;100.00
4586;BME280;2305;50.118;8.952;2023-02-14T02:41:47;102583.34;;;1.81;100.00
4586;BME280;2305;50.118;8.952;2023-02-14T02:44:20;102575.53;;;1.81;100.00
4586;BME280;2305;50.118;8.952;2023-02-14T02:47:02;102589.38;;;1.80;100.00
4586;BME280;2305;50.118;8.952;2023-02-14T02:49:38;102573.78;;;1.80;100.00
4586;BME280;2305;50.118;8.952;2023-02-14T02:52:34;102576.44;;;1.76;100.00
4586;BME280;2305;50.118;8.952;2023-02-14T02:55:24;102580.78;;;1.75;100.00
4586;BME280;2305;50.118;8.952;2023-02-14T02:57:58;102582.56;;;1.70;100.00
4586;BME280;2305;50.118;8.952;2023-02-14T03:00:26;102585.13;;;1.73;100.00
4586;BME280;2305;50.118;8.952;2023-02-14T03:02:56;102583.41;;;1.74;100.00
4586;BME280;2305;50.118;8.952;2023-02-14T03:05:42;102589.47;;;1.74;100.00
4586;BME280;2305;50.118;8.952;2023-02-14T03:08:16;102592.06;;;1.74;100.00
4586;BME280;2305;50.118;8.952;2023-02-14T03:10:46;102581.69;;;1.73;100.00
4586;BME280;2305;50.118;8.952;2023-02-14T03:13:39;102584.31;;;1.67;100.00
4586;BME280;2305;50.118;8.952;2023-02-14T03:16:22;102589.53;;;1.67;100.00
4586;BME280;2305;50.118;8.952;2023-02-14T03:19:09;102585.22;;;1.66;100.00
4586;BME280;2305;50.118;8.952;2023-02-14T03:22:05;102579.19;;;1.61;100.00
4586;BME280;2305;50.118;8.952;2023-02-14T03:24:45;102581.78;;;1.64;100.00
4586;BME280;2305;50.118;8.952;2023-02-14T03:27:20;102580.00;;;1.64;100.00
4586;BME280;2305;50.118;8.952;2023-02-14T03:29:55;102589.53;;;1.68;100.00
4586;BME280;2305;50.118;8.952;2023-02-14T03:32:32;102582.63;;;1.64;100.00
4586;BME280;2305;50.118;8.952;2023-02-14T03:35:10;102585.22;;;1.63;100.00
4586;BME280;2305;50.118;8.952;2023-02-14T03:37:43;102583.53;;;1.56;100.00
4586;BME280;2305;50.118;8.952;2023-02-14T03:40:22;102584.47;;;1.53;100.00
4586;BME280;2305;50.118;8.952;2023-02-14T03:42:56;102579.25;;;1.53;100.00
4586;BME280;2305;50.118;8.952;2023-02-14T03:45:31;102573.19;;;1.54;100.00
4586;BME280;2305;50.118;8.952;2023-02-14T03:48:04;102577.56;;;1.49;100.00
4586;BME280;2305;50.118;8.952;2023-02-14T03:50:37;102581.88;;;1.49;100.00
4586;BME280;2305;50.118;8.952;2023-02-14T03:53:10;102577.59;;;1.45;100.00
4586;BME280;2305;50.118;8.952;2023-02-14T03:55:45;102580.25;;;1.40;100.00
4586;BME280;2305;50.118;8.952;2023-02-14T03:58:20;102590.66;;;1.34;100.00
4586;BME280;2305;50.118;8.952;2023-02-14T04:00:57;102581.13;;;1.38;100.00
4586;BME280;2305;50.118;8.952;2023-02-14T04:03:28;102584.56;;;1.38;100.00
4586;BME280;2305;50.118;8.952;2023-02-14T04:05:59;102588.03;;;1.39;100.00
4586;BME280;2305;50.118;8.952;2023-02-14T04:08:28;102592.34;;;1.38;100.00
4586;BME280;2305;50.118;8.952;2023-02-14T04:11:00;102596.69;;;1.38;100.00
4586;BME280;2305;50.118;8.952;2023-02-14T04:13:29;102594.16;;;1.32;100.00
4586;BME280;2305;50.118;8.952;2023-02-14T04:15:57;102593.34;;;1.25;100.00
4586;BME280;2305;50.118;8.952;2023-02-14T04:18:26;102598.59;;;1.16;100.00
4586;BME280;2305;50.118;8.952;2023-02-14T04:21:11;102601.13;;;1.22;100.00
4586;BME280;2305;50.118;8.952;2023-02-14T04:23:39;102608.09;;;1.22;100.00
4586;BME280;2305;50.118;8.952;2023-02-14T04:26:09;102615.84;;;1.23;100.00
4586;BME280;2305;50.118;8.952;2023-02-14T04:28:37;102613.28;;;1.22;100.00
4586;BME280;2305;50.118;8.952;2023-02-14T04:31:05;102609.75;;;1.27;100.00
4586;BME280;2305;50.118;8.952;2023-02-14T04:33:33;102612.28;;;1.36;100.00
4586;BME280;2305;50.118;8.952;2023-02-14T04:36:01;102610.53;;;1.40;100.00
4586;BME280;2305;50.118;8.952;2023-02-14T04:38:30;102610.50;;;1.44;100.00
4586;BME280;2305;50.118;8.952;2023-02-14T04:40:59;102609.59;;;1.45;100.00
4586;BME280;2305;50.118;8.952;2023-02-14T04:43:29;102607.88;;;1.46;100.00
4586;BME280;2305;50.118;8.952;2023-02-14T04:45:57;102606.97;;;1.51;100.00
4586;BME280;2305;50.118;8.952;2023-02-14T04:48:26;102607.84;;;1.52;100.00
4586;BME280;2305;50.118;8.952;2023-02-14T04:50:54;102608.69;;;1.54;100.00
4586;BME280;2305;50.118;8.952;2023-02-14T04:53:22;102610.41;;;1.56;100.00
4586;BME280;2305;50.118;8.952;2023-02-14T04:55:50;102604.31;;;1.56;100.00
4586;BME280;2305;50.118;8.952;2023-02-14T04:58:18;102597.38;;;1.62;100.00
4586;BME280;2305;50.118;8.952;2023-02-14T05:00:48;102606.00;;;1.64;100.00
4586;BME280;2305;50.118;8.952;2023-02-14T05:03:16;102598.19;;;1.67;100.00
4586;BME280;2305;50.118;8.952;2023-02-14T05:05:43;102599.03;;;1.68;100.00
4586;BME280;2305;50.118;8.952;2023-02-14T05:08:12;102597.31;;;1.65;100.00
4586;BME280;2305;50.118;8.952;2023-02-14T05:10:40;102593.03;;;1.61;100.00
4586;BME280;2305;50.118;8.952;2023-02-14T05:13:08;102588.69;;;1.62;100.00
4586;BME280;2305;50.118;8.952;2023-02-14T05:15:36;102594.69;;;1.71;100.00
4586;BME280;2305;50.118;8.952;2023-02-14T05:18:07;102601.56;;;1.75;100.00
4586;BME280;2305;50.118;8.952;2023-02-14T05:20:35;102606.72;;;1.81;100.00
4586;BME280;2305;50.118;8.952;2023-02-14T05:23:03;102600.59;;;1.84;100.00
4586;BME280;2305;50.118;8.952;2023-02-14T05:25:33;102604.97;;;1.85;100.00
4586;BME280;2305;50.118;8.952;2023-02-14T05:28:01;102607.53;;;1.86;100.00
4586;BME280;2305;50.118;8.952;2023-02-14T05:30:29;102605.81;;;1.84;100.00
4586;BME280;2305;50.118;8.952;2023-02-14T05:32:57;102605.81;;;1.85;100.00
4586;BME280;2305;50.118;8.952;2023-02-14T05:35:27;102611.00;;;1.84;100.00
4586;BME280;2305;50.118;8.952;2023-02-14T05:37:55;102604.97;;;1.82;100.00
4586;BME280;2305;50.118;8.952;2023-02-14T05:40:24;102606.72;;;1.81;100.00
4586;BME280;2305;50.118;8.952;2023-02-14T05:42:55;102612.81;;;1.77;100.00
4586;BME280;2305;50.118;8.952;2023-02-14T05:45:22;102605.03;;;1.77;100.00
4586;BME280;2305;50.118;8.952;2023-02-14T05:47:51;102609.31;;;1.81;100.00
4586;BME280;2305;50.118;8.952;2023-02-14T05:50:19;102609.31;;;1.81;100.00
4586;BME280;2305;50.118;8.952;2023-02-14T05:52:54;102612.81;;;1.79;100.00
4586;BME280;2305;50.118;8.952;2023-02-14T05:55:23;102609.34;;;1.78;100.00
4586;BME280;2305;50.118;8.952;2023-02-14T05:57:51;102608.50;;;1.78;100.00
4586;BME280;2305;50.118;8.952;2023-02-14T06:00:21;102611.00;;;1.84;100.00
4586;BME280;2305;50.118;8.952;2023-02-14T06:02:49;102613.59;;;1.87;100.00
4586;BME280;2305;50.118;8.952;2023-02-14T06:05:17;102602.28;;;1.92;100.00
4586;BME280;2305;50.118;8.952;2023-02-14T06:07:47;102598.78;;;1.96;100.00
4586;BME280;2305;50.118;8.952;2023-02-14T06:10:19;102599.56;;;2.04;100.00
4586;BME280;2305;50.118;8.952;2023-02-14T06:12:49;102599.56;;;2.04;100.00
4586;BME280;2305;50.118;8.952;2023-02-14T06:15:21;102601.28;;;2.04;100.00
4586;BME280;2305;50.118;8.952;2023-02-14T06:17:50;102603.97;;;1.96;100.00
4586;BME280;2305;50.118;8.952;2023-02-14T06:20:21;102614.28;;;2.04;100.00
4586;BME280;2305;50.118;8.952;2023-02-14T06:22:50;102611.63;;;2.08;100.00
4586;BME280;2305;50.118;8.952;2023-02-14T06:25:22;102610.72;;;2.14;100.00
4586;BME280;2305;50.118;8.952;2023-02-14T06:27:54;102622.78;;;2.18;100.00
4586;BME280;2305;50.118;8.952;2023-02-14T06:30:26;102607.19;;;2.18;100.00
4586;BME280;2305;50.118;8.952;2023-02-14T06:32:57;102608.00;;;2.23;100.00
4586;BME280;2305;50.118;8.952;2023-02-14T06:35:26;102602.72;;;2.30;100.00
4586;BME280;2305;50.118;8.952;2023-02-14T06:37:54;102603.53;;;2.35;100.00
4586;BME280;2305;50.118;8.952;2023-02-14T06:40:24;102605.19;;;2.41;100.00
4586;BME280;2305;50.118;8.952;2023-02-14T06:42:51;102606.94;;;2.39;100.00
4586;BME280;2305;50.118;8.952;2023-02-14T06:45:19;102613.88;;;2.41;100.00
4586;BME280;2305;50.118;8.952;2023-02-14T06:47:51;102607.78;;;2.44;100.00
4586;BME280;2305;50.118;8.952;2023-02-14T06:50:19;102610.25;;;2.54;100.00
4586;BME280;2305;50.118;8.952;2023-02-14T06:52:47;102609.28;;;2.61;100.00
4586;BME280;2305;50.118;8.952;2023-02-14T06:55:19;102614.44;;;2.64;100.00
4586;BME280;2305;50.118;8.952;2023-02-14T06:57:48;102604.84;;;2.69;100.00
4586;BME280;2305;50.118;8.952;2023-02-14T07:00:18;102606.56;;;2.72;100.00
4586;BME280;2305;50.118;8.952;2023-02-14T07:02:46;102604.69;;;2.80;100.00
4586;BME280;2305;50.118;8.952;2023-02-14T07:05:14;102603.81;;;2.82;100.00
4586;BME280;2305;50.118;8.952;2023-02-14T07:07:47;102603.75;;;2.87;100.00
4586;BME280;2305;50.118;8.952;2023-02-14T07:10:15;102605.44;;;2.89;100.00
4586;BME280;2305;50.118;8.952;2023-02-14T07:12:44;102606.19;;;2.97;100.00
4586;BME280;2305;50.118;8.952;2023-02-14T07:15:14;102610.50;;;3.00;100.00
4586;BME280;2305;50.118;8.952;2023-02-14T07:17:42;102613.91;;;3.03;100.00
4586;BME280;2305;50.118;8.952;2023-02-14T07:20:12;102612.16;;;3.04;100.00
4586;BME280;2305;50.118;8.952;2023-02-14T07:22:40;102607.75;;;3.09;100.00
4586;BME280;2305;50.118;8.952;2023-02-14T07:25:09;102600.75;;;3.14;100.00
4586;BME280;2305;50.118;8.952;2023-02-14T07:27:39;102609.38;;;3.17;100.00
4586;BME280;2305;50.118;8.952;2023-02-14T07:30:19;102610.22;;;3.19;100.00
4586;BME280;2305;50.118;8.952;2023-02-14T07:32:47;102605.69;;;3.30;100.00
4586;BME280;2305;50.118;8.952;2023-02-14T07:35:15;102601.31;;;3.32;100.00
4586;BME280;2305;50.118;8.952;2023-02-14T07:37:43;102607.25;;;3.42;100.00
4586;BME280;2305;50.118;8.952;2023-02-14T07:40:12;102605.47;;;3.44;100.00
4586;BME280;2305;50.118;8.952;2023-02-14T07:42:41;102605.41;;;3.47;100.00
4586;BME280;2305;50.118;8.952;2023-02-14T07:45:09;102608.00;;;3.48;100.00
4586;BME280;2305;50.118;8.952;2023-02-14T07:47:54;102608.88;;;3.49;100.00
4586;BME280;2305;50.118;8.952;2023-02-14T07:50:28;102608.75;;;3.56;100.00
4586;BME280;2305;50.118;8.952;2023-02-14T07:52:57;102603.38;;;3.65;100.00
4586;BME280;2305;50.118;8.952;2023-02-14T07:55:27;102596.31;;;3.72;100.00
4586;BME280;2305;50.118;8.952;2023-02-14T07:57:55;102606.72;;;3.73;100.00
4586;BME280;2305;50.118;8.952;2023-02-14T08:00:24;102601.72;;;3.60;100.00
4586;BME280;2305;50.118;8.952;2023-02-14T08:02:54;102613.84;;;3.62;100.00
4586;BME280;2305;50.118;8.952;2023-02-14T08:05:23;102605.16;;;3.62;100.00
4586;BME280;2305;50.118;8.952;2023-02-14T08:07:51;102605.22;;;3.59;100.00
4586;BME280;2305;50.118;8.952;2023-02-14T08:10:19;102600.66;;;3.71;100.00
4586;BME280;2305;50.118;8.952;2023-02-14T08:12:47;102604.97;;;3.72;100.00
4586;BME280;2305;50.118;8.952;2023-02-14T08:15:46;102603.03;;;3.85;100.00
4586;BME280;2305;50.118;8.952;2023-02-14T08:18:38;102601.19;;;3.90;100.00
4586;BME280;2305;50.118;8.952;2023-02-14T08:21:09;102596.78;;;3.93;100.00
4586;BME280;2305;50.118;8.952;2023-02-14T08:23:38;102598.34;;;4.03;100.00
4586;BME280;2305;50.118;8.952;2023-02-14T08:26:06;102597.38;;;4.07;100.00
4586;BME280;2305;50.118;8.952;2023-02-14T08:28:37;102597.34;;;4.10;100.00
4586;BME280;2305;50.118;8.952;2023-02-14T08:31:05;102599.03;;;4.13;100.00
4586;BME280;2305;50.118;8.952;2023-02-14T08:33:33;102597.06;;;4.25;100.00
4586;BME280;2305;50.118;8.952;2023-02-14T08:36:04;102609.09;;;4.32;100.00
4586;BME280;2305;50.118;8.952;2023-02-14T08:38:34;102595.84;;;4.41;100.00
4586;BME280;2305;50.118;8.952;2023-02-14T08:41:02;102598.44;;;4.42;100.00
4586;BME280;2305;50.118;8.952;2023-02-14T08:43:34;102592.94;;;4.56;100.00
4586;BME280;2305;50.118;8.952;2023-02-14T08:46:03;102595.41;;;4.63;100.00
4586;BME280;2305;50.118;8.952;2023-02-14T08:48:33;102590.88;;;4.70;100.00
4586;BME280;2305;50.118;8.952;2023-02-14T08:51:07;102592.50;;;4.75;100.00
4586;BME280;2305;50.118;8.952;2023-02-14T08:53:38;102588.38;;;4.65;100.00
4586;BME280;2305;50.118;8.952;2023-02-14T08:56:10;102598.81;;;4.67;100.00
4586;BME280;2305;50.118;8.952;2023-02-14T08:58:39;102599.69;;;4.66;100.00
4586;BME280;2305;50.118;8.952;2023-02-14T09:01:08;102598.16;;;4.54;100.00
4586;BME280;2305;50.118;8.952;2023-02-14T09:03:37;102599.03;;;4.55;100.00
4586;BME280;2305;50.118;8.952;2023-02-14T09:06:09;102592.16;;;4.51;100.00
4586;BME280;2305;50.118;8.952;2023-02-14T09:08:40;102584.97;;;4.62;100.00
4586;BME280;2305;50.118;8.952;2023-02-14T09:11:10;102587.47;;;4.68;100.00
4586;BME280;2305;50.118;8.952;2023-02-14T09:13:43;102587.16;;;4.81;100.00
4586;BME280;2305;50.118;8.952;2023-02-14T09:16:13;102586.19;;;4.87;100.00
4586;BME280;2305;50.118;8.952;2023-02-14T09:18:44;102580.72;;;4.97;100.00
4586;BME280;2305;50.118;8.952;2023-02-14T09:21:16;102581.63;;;4.95;100.00
4586;BME280;2305;50.118;8.952;2023-02-14T09:23:45;102584.38;;;4.89;100.00
4586;BME280;2305;50.118;8.952;2023-02-14T09:26:14;102582.00;;;4.78;100.00
4586;BME280;2305;50.118;8.952;2023-02-14T09:28:44;102580.91;;;4.88;100.00
4586;BME280;2305;50.118;8.952;2023-02-14T09:31:14;102590.28;;;4.97;100.00
4586;BME280;2305;50.118;8.952;2023-02-14T09:33:44;102577.81;;;5.09;100.00
4586;BME280;2305;50.118;8.952;2023-02-14T09:36:14;102581.03;;;5.20;100.00
4586;BME280;2305;50.118;8.952;2023-02-14T09:38:48;102572.78;;;5.02;100.00
4586;BME280;2305;50.118;8.952;2023-02-14T09:41:36;102579.41;;;5.15;100.00
4586;BME280;2305;50.118;8.952;2023-02-14T09:44:17;102572.94;;;4.94;100.00
4586;BME280;2305;50.118;8.952;2023-02-14T09:46:53;102579.84;;;4.97;100.00
4586;BME280;2305;50.118;8.952;2023-02-14T09:49:30;102574.88;;;4.85;100.00
4586;BME280;2305;50.118;8.952;2023-02-14T09:52:02;102590.53;;;4.86;100.00
4586;BME280;2305;50.118;8.952;2023-02-14T09:54:34;102589.59;;;4.90;100.00
4586;BME280;2305;50.118;8.952;2023-02-14T09:57:08;102576.22;;;5.02;100.00
4586;BME280;2305;50.118;8.952;2023-02-14T09:59:41;102582.00;;;5.15;100.00
4586;BME280;2305;50.118;8.952;2023-02-14T10:02:21;102576.88;;;5.12;100.00
4586;BME280;2305;50.118;8.952;2023-02-14T10:04:59;102576.41;;;4.95;100.00
4586;BME280;2305;50.118;8.952;2023-02-14T10:07:39;102578.16;;;4.94;100.00
4586;BME280;2305;50.118;8.952;2023-02-14T10:10:14;102573.50;;;5.07;100.00
4586;BME280;2305;50.118;8.952;2023-02-14T10:12:49;102574.00;;;5.22;100.00
4586;BME280;2305;50.118;8.952;2023-02-14T10:15:23;102579.31;;;5.19;100.00
4586;BME280;2305;50.118;8.952;2023-02-14T10:17:59;102580.25;;;5.17;100.00
4586;BME280;2305;50.118;8.952;2023-02-14T10:20:36;102577.69;;;5.14;100.00
4586;BME280;2305;50.118;8.952;2023-02-14T10:23:23;102579.25;;;5.22;100.00
4586;BME280;2305;50.118;8.952;2023-02-14T10:25:55;102579.13;;;5.27;100.00
4586;BME280;2305;50.118;8.952;2023-02-14T10:28:33;102581.69;;;5.30;100.00
4586;BME280;2305;50.118;8.952;2023-02-14T10:31:19;102576.97;;;5.44;100.00
4586;BME280;2305;50.118;8.952;2023-02-14T10:33:51;102581.31;;;5.45;100.00
4586;BME280;2305;50.118;8.952;2023-02-14T10:36:42;102576.53;;;5.60;100.00
4586;BME280;2305;50.118;8.952;2023-02-14T10:39:38;102566.19;;;5.91;100.00
4586;BME280;2305;50.118;8.952;2023-02-14T10:42:18;102568.25;;;5.77;100.00
4586;BME280;2305;50.118;8.952;2023-02-14T10:44:58;102564.81;;;5.76;100.00
4586;BME280;2305;50.118;8.952;2023-02-14T10:47:38;102570.22;;;5.69;100.00
4586;BME280;2305;50.118;8.952;2023-02-14T10:50:17;102566.28;;;5.53;100.00
4586;BME280;2305;50.118;8.952;2023-02-14T10:52:51;102562.69;;;5.57;100.00
4586;BME280;2305;50.118;8.952;2023-02-14T10:55:38;102559.00;;;5.64;100.00
4586;BME280;2305;50.118;8.952;2023-02-14T10:58:11;102555.84;;;5.51;100.00
4586;BME280;2305;50.118;8.952;2023-02-14T11:00:47;102545.66;;;5.74;100.00
4586;BME280;2305;50.118;8.952;2023-02-14T11:03:17;102547.06;;;5.89;100.00
4586;BME280;2305;50.118;8.952;2023-02-14T11:05:50;102545.81;;;6.02;100.00
4586;BME280;2305;50.118;8.952;2023-02-14T11:08:24;102538.31;;;5.90;100.00
4586;BME280;2305;50.118;8.952;2023-02-14T11:11:02;102533.88;;;5.92;100.00
4586;BME280;2305;50.118;8.952;2023-02-14T11:13:37;102530.03;;;6.05;100.00
4586;BME280;2305;50.118;8.952;2023-02-14T11:16:12;102526.56;;;6.04;100.00
4586;BME280;2305;50.118;8.952;2023-02-14T11:18:45;102529.47;;;6.24;100.00
4586;BME280;2305;50.118;8.952;2023-02-14T11:21:16;102526.38;;;6.10;100.00
4586;BME280;2305;50.118;8.952;2023-02-14T11:23:48;102526.31;;;6.13;100.00
4586;BME280;2305;50.118;8.952;2023-02-14T11:26:23;102523.44;;;6.21;100.00
4586;BME280;2305;50.118;8.952;2023-02-14T11:28:58;102530.00;;;6.37;100.00
4586;BME280;2305;50.118;8.952;2023-02-14T11:31:29;102518.16;;;6.53;100.00
4586;BME280;2305;50.118;8.952;2023-02-14T11:34:00;102515.81;;;6.71;100.00
4586;BME280;2305;50.118;8.952;2023-02-14T11:36:31;102519.09;;;6.50;100.00
4586;BME280;2305;50.118;8.952;2023-02-14T11:39:24;102516.47;;;6.50;100.00
4586;BME280;2305;50.118;8.952;2023-02-14T11:41:58;102509.09;;;6.63;100.00
4586;BME280;2305;50.118;8.952;2023-02-14T11:44:29;102510.63;;;6.70;100.00
4586;BME280;2305;50.118;8.952;2023-02-14T11:47:18;102500.44;;;6.88;100.00
4586;BME280;2305;50.118;8.952;2023-02-14T11:49:56;102499.84;;;7.06;100.00
4586;BME280;2305;50.118;8.952;2023-02-14T11:52:26;102482.84;;;7.18;100.00
4586;BME280;2305;50.118;8.952;2023-02-14T11:54:56;102478.78;;;7.09;100.00
4586;BME280;2305;50.118;8.952;2023-02-14T11:57:32;102470.06;;;7.09;100.00
4586;BME280;2305;50.118;8.952;2023-02-14T12:00:12;102472.84;;;7.04;100.00
4586;BME280;2305;50.118;8.952;2023-02-14T12:02:43;102472.78;;;7.32;100.00
4586;BME280;2305;50.118;8.952;2023-02-14T12:05:17;102471.16;;;7.52;100.00
4586;BME280;2305;50.118;8.952;2023-02-14T12:07:47;102460.47;;;7.58;100.00
4586;BME280;2305;50.118;8.952;2023-02-14T12:10:21;102466.47;;;7.85;100.00
4586;BME280;2305;50.118;8.952;2023-02-14T12:12:54;102463.06;;;8.06;100.00
4586;BME280;2305;50.118;8.952;2023-02-14T12:15:29;102450.84;;;8.29;100.00
4586;BME280;2305;50.118;8.952;2023-02-14T12:21:23;102445.94;;;8.65;100.00
4586;BME280;2305;50.118;8.952;2023-02-14T12:24:01;102447.41;;;8.72;100.00
4586;BME280;2305;50.118;8.952;2023-02-14T12:26:36;102444.09;;;8.67;100.00
4586;BME280;2305;50.118;8.952;2023-02-14T12:29:16;102444.13;;;7.98;100.00
4586;BME280;2305;50.118;8.952;2023-02-14T12:31:49;102436.72;;;8.32;100.00
4586;BME280;2305;50.118;8.952;2023-02-14T12:34:21;102430.34;;;8.60;100.00
4586;BME280;2305;50.118;8.952;2023-02-14T12:37:08;102427.44;;;8.66;100.00
4586;BME280;2305;50.118;8.952;2023-02-14T12:39:48;102423.75;;;8.72;100.00
4586;BME280;2305;50.118;8.952;2023-02-14T12:42:31;102415.50;;;9.00;100.00
4586;BME280;2305;50.118;8.952;2023-02-14T12:45:11;102419.19;;;9.16;100.00
4586;BME280;2305;50.118;8.952;2023-02-14T12:47:51;102410.53;;;9.34;100.00
4586;BME280;2305;50.118;8.952;2023-02-14T12:50:36;102401.88;;;9.51;100.00
4586;BME280;2305;50.118;8.952;2023-02-14T12:53:37;102405.19;;;9.56;100.00
4586;BME280;2305;50.118;8.952;2023-02-14T12:56:17;102407.63;;;9.79;100.00
4586;BME280;2305;50.118;8.952;2023-02-14T12:58:55;102403.00;;;9.65;100.00
4586;BME280;2305;50.118;8.952;2023-02-14T13:01:56;102400.94;;;9.90;100.00
4586;BME280;2305;50.118;8.952;2023-02-14T13:04:38;102395.88;;;10.06;100.00
4586;BME280;2305;50.118;8.952;2023-02-14T13:07:19;102383.19;;;10.14;100.00
4586;BME280;2305;50.118;8.952;2023-02-14T13:09:55;102387.63;;;10.32;100.00
4586;BME280;2305;50.118;8.952;2023-02-14T13:12:31;102383.41;;;10.28;100.00
4586;BME280;2305;50.118;8.952;2023-02-14T13:15:17;102369.25;;;10.47;100.00
4586;BME280;2305;50.118;8.952;2023-02-14T13:17:54;102370.06;;;10.66;100.00
4586;BME280;2305;50.118;8.952;2023-02-14T13:20:37;102363.69;;;10.53;100.00
4586;BME280;2305;50.118;8.952;2023-02-14T13:23:12;102369.16;;;10.67;100.00
4586;BME280;2305;50.118;8.952;2023-02-14T13:25:51;102361.03;;;10.89;100.00
4586;BME280;2305;50.118;8.952;2023-02-14T13:28:24;102361.63;;;10.94;100.00
4586;BME280;2305;50.118;8.952;2023-02-14T13:30:54;102356.84;;;11.02;100.00
4586;BME280;2305;50.118;8.952;2023-02-14T13:33:30;102341.78;;;11.04;100.00
4586;BME280;2305;50.118;8.952;2023-02-14T13:36:03;102344.31;;;11.22;100.00
4586;BME280;2305;50.118;8.952;2023-02-14T13:38:37;102336.28;;;11.41;100.00
4586;BME280;2305;50.118;8.952;2023-02-14T13:41:10;102334.19;;;11.47;100.00
4586;BME280;2305;50.118;8.952;2023-02-14T13:43:48;102333.66;;;11.73;100.00
4586;BME280;2305;50.118;8.952;2023-02-14T13:46:43;102333.44;;;11.93;100.00
4586;BME280;2305;50.118;8.952;2023-02-14T13:49:24;102326.50;;;12.37;100.00
4586;BME280;2305;50.118;8.952;2023-02-14T13:51:56;102325.94;;;12.91;100.00
4586;BME280;2305;50.118;8.952;2023-02-14T13:54:34;102318.16;;;13.87;100.00
4586;BME280;2305;50.118;8.952;2023-02-14T13:57:24;102311.00;;;14.94;92.89